sensor_id;sensor_type;location;lat;lon;timestamp;temperature;humidity
40756;DHT22;26461;45.630;9.418;2023-12-07T00:02:47;5.00;73.70
40756;DHT22;26461;45.630;9.418;2023-12-07T00:05:58;5.00;74.10
40756;DHT22;26461;45.630;9.418;2023-12-07T00:09:08;5.00;74.20
40756;DHT22;26461;45.630;9.418;2023-12-07T00:12:18;5.00;74.60
40756;DHT22;26461;45.630;9.418;2023-12-07T00:15:29;5.00;74.90
40756;DHT22;26461;45.630;9.418;2023-12-07T00:18:34;5.00;75.20
40756;DHT22;26461;45.630;9.418;2023-12-07T00:21:39;5.00;75.30
40756;DHT22;26461;45.630;9.418;2023-12-07T00:24:44;5.00;75.70
40756;DHT22;26461;45.630;9.418;2023-12-07T00:27:55;5.00;75.90
40756;DHT22;26461;45.630;9.418;2023-12-07T00:31:05;5.00;76.10
40756;DHT22;26461;45.630;9.418;2023-12-07T00:34:10;5.00;76.30
40756;DHT22;26461;45.630;9.418;2023-12-07T00:37:21;5.00;76.50
40756;DHT22;26461;45.630;9.418;2023-12-07T00:40:31;5.00;76.60
40756;DHT22;26461;45.630;9.418;2023-12-07T00:43:41;5.00;76.70
40756;DHT22;26461;45.630;9.418;2023-12-07T00:46:51;5.00;76.80
40756;DHT22;26461;45.630;9.418;2023-12-07T00:50:01;5.00;77.60
40756;DHT22;26461;45.630;9.418;2023-12-07T00:53:15;5.00;76.90
40756;DHT22;26461;45.630;9.418;2023-12-07T00:56:25;5.00;76.80
40756;DHT22;26461;45.630;9.418;2023-12-07T00:59:35;5.00;76.70
40756;DHT22;26461;45.630;9.418;2023-12-07T01:02:47;5.00;77.40
40756;DHT22;26461;45.630;9.418;2023-12-07T01:05:57;5.00;76.70
40756;DHT22;26461;45.630;9.418;2023-12-07T01:09:02;4.90;76.60
40756;DHT22;26461;45.630;9.418;2023-12-07T01:12:13;5.00;76.70
40756;DHT22;26461;45.630;9.418;2023-12-07T01:15:18;4.90;76.70
40756;DHT22;26461;45.630;9.418;2023-12-07T01:18:29;4.90;76.80
40756;DHT22;26461;45.630;9.418;2023-12-07T01:21:39;4.90;76.90
40756;DHT22;26461;45.630;9.418;2023-12-07T01:24:44;4.90;76.70
40756;DHT22;26461;45.630;9.418;2023-12-07T01:27:50;4.90;76.10
40756;DHT22;26461;45.630;9.418;2023-12-07T01:31:00;4.90;76.60
40756;DHT22;26461;45.630;9.418;2023-12-07T01:34:10;4.80;75.90
40756;DHT22;26461;45.630;9.418;2023-12-07T01:37:15;4.80;76.10
40756;DHT22;26461;45.630;9.418;2023-12-07T01:40:26;4.80;76.40
40756;DHT22;26461;45.630;9.418;2023-12-07T01:43:32;4.80;76.50
40756;DHT22;26461;45.630;9.418;2023-12-07T01:46:42;4.80;76.50
40756;DHT22;26461;45.630;9.418;2023-12-07T01:49:48;4.80;76.60
40756;DHT22;26461;45.630;9.418;2023-12-07T01:53:02;4.90;76.40
40756;DHT22;26461;45.630;9.418;2023-12-07T01:56:14;4.90;76.20
40756;DHT22;26461;45.630;9.418;2023-12-07T01:59:26;4.90;76.10
40756;DHT22;26461;45.630;9.418;2023-12-07T02:02:33;4.90;76.30
40756;DHT22;26461;45.630;9.418;2023-12-07T02:05:47;4.90;75.90
40756;DHT22;26461;45.630;9.418;2023-12-07T02:08:53;4.90;75.50
40756;DHT22;26461;45.630;9.418;2023-12-07T02:12:03;4.90;75.10
40756;DHT22;26461;45.630;9.418;2023-12-07T02:15:14;4.90;75.00
40756;DHT22;26461;45.630;9.418;2023-12-07T02:18:33;4.80;75.00
40756;DHT22;26461;45.630;9.418;2023-12-07T02:22:12;4.80;74.90
40756;DHT22;26461;45.630;9.418;2023-12-07T02:25:31;4.80;75.10
40756;DHT22;26461;45.630;9.418;2023-12-07T02:28:37;4.70;75.20
40756;DHT22;26461;45.630;9.418;2023-12-07T02:31:47;4.70;75.30
40756;DHT22;26461;45.630;9.418;2023-12-07T02:34:53;4.70;75.30
40756;DHT22;26461;45.630;9.418;2023-12-07T02:38:03;4.60;75.10
40756;DHT22;26461;45.630;9.418;2023-12-07T02:41:11;4.70;75.30
40756;DHT22;26461;45.630;9.418;2023-12-07T02:44:16;4.60;75.30
40756;DHT22;26461;45.630;9.418;2023-12-07T02:47:27;4.60;75.20
40756;DHT22;26461;45.630;9.418;2023-12-07T02:50:32;4.60;74.80
40756;DHT22;26461;45.630;9.418;2023-12-07T02:53:37;4.60;74.80
40756;DHT22;26461;45.630;9.418;2023-12-07T02:56:48;4.50;74.80
40756;DHT22;26461;45.630;9.418;2023-12-07T02:59:53;4.50;74.50
40756;DHT22;26461;45.630;9.418;2023-12-07T03:03:04;4.50;74.40
40756;DHT22;26461;45.630;9.418;2023-12-07T03:06:14;4.50;74.20
40756;DHT22;26461;45.630;9.418;2023-12-07T03:09:21;4.50;73.90
40756;DHT22;26461;45.630;9.418;2023-12-07T03:12:31;4.50;73.70
40756;DHT22;26461;45.630;9.418;2023-12-07T03:15:42;4.50;73.50
40756;DHT22;26461;45.630;9.418;2023-12-07T03:18:47;4.50;73.20
40756;DHT22;26461;45.630;9.418;2023-12-07T03:21:58;4.50;72.90
40756;DHT22;26461;45.630;9.418;2023-12-07T03:25:03;4.50;72.70
40756;DHT22;26461;45.630;9.418;2023-12-07T03:28:13;4.50;72.60
40756;DHT22;26461;45.630;9.418;2023-12-07T03:31:19;4.50;72.50
40756;DHT22;26461;45.630;9.418;2023-12-07T03:34:29;4.40;72.50
40756;DHT22;26461;45.630;9.418;2023-12-07T03:37:34;4.40;72.40
40756;DHT22;26461;45.630;9.418;2023-12-07T03:40:45;4.40;72.20
40756;DHT22;26461;45.630;9.418;2023-12-07T03:43:53;4.40;72.10
40756;DHT22;26461;45.630;9.418;2023-12-07T03:47:03;4.40;71.90
40756;DHT22;26461;45.630;9.418;2023-12-07T03:50:14;4.40;71.70
40756;DHT22;26461;45.630;9.418;2023-12-07T03:53:24;4.40;71.50
40756;DHT22;26461;45.630;9.418;2023-12-07T03:56:30;4.40;71.70
40756;DHT22;26461;45.630;9.418;2023-12-07T03:59:41;4.40;71.90
40756;DHT22;26461;45.630;9.418;2023-12-07T04:02:52;4.40;71.80
40756;DHT22;26461;45.630;9.418;2023-12-07T04:05:57;4.40;71.70
40756;DHT22;26461;45.630;9.418;2023-12-07T04:09:08;4.40;71.80
40756;DHT22;26461;45.630;9.418;2023-12-07T04:12:18;4.30;71.90
40756;DHT22;26461;45.630;9.418;2023-12-07T04:15:30;4.30;72.00
40756;DHT22;26461;45.630;9.418;2023-12-07T04:18:40;4.30;72.20
40756;DHT22;26461;45.630;9.418;2023-12-07T04:21:45;4.30;72.30
40756;DHT22;26461;45.630;9.418;2023-12-07T04:24:51;4.30;72.40
40756;DHT22;26461;45.630;9.418;2023-12-07T04:28:02;4.30;72.60
40756;DHT22;26461;45.630;9.418;2023-12-07T04:31:07;4.30;72.80
40756;DHT22;26461;45.630;9.418;2023-12-07T04:34:12;4.30;73.10
40756;DHT22;26461;45.630;9.418;2023-12-07T04:37:18;4.30;73.30
40756;DHT22;26461;45.630;9.418;2023-12-07T04:40:28;4.30;73.60
40756;DHT22;26461;45.630;9.418;2023-12-07T04:43:38;4.30;73.70
40756;DHT22;26461;45.630;9.418;2023-12-07T04:46:43;4.30;73.80
40756;DHT22;26461;45.630;9.418;2023-12-07T04:49:49;4.40;73.50
40756;DHT22;26461;45.630;9.418;2023-12-07T04:52:58;4.40;73.10
40756;DHT22;26461;45.630;9.418;2023-12-07T04:56:04;4.40;72.90
40756;DHT22;26461;45.630;9.418;2023-12-07T04:59:10;4.40;72.80
40756;DHT22;26461;45.630;9.418;2023-12-07T05:02:20;4.30;72.30
40756;DHT22;26461;45.630;9.418;2023-12-07T05:05:25;4.40;72.30
40756;DHT22;26461;45.630;9.418;2023-12-07T05:08:31;4.30;71.80
40756;DHT22;26461;45.630;9.418;2023-12-07T05:11:36;4.30;71.80
40756;DHT22;26461;45.630;9.418;2023-12-07T05:14:47;4.30;71.80
40756;DHT22;26461;45.630;9.418;2023-12-07T05:17:53;4.30;71.60
40756;DHT22;26461;45.630;9.418;2023-12-07T05:21:03;4.30;71.60
40756;DHT22;26461;45.630;9.418;2023-12-07T05:24:09;4.30;71.50
40756;DHT22;26461;45.630;9.418;2023-12-07T05:27:14;4.30;71.40
40756;DHT22;26461;45.630;9.418;2023-12-07T05:30:20;4.30;71.40
40756;DHT22;26461;45.630;9.418;2023-12-07T05:33:25;4.30;71.50
40756;DHT22;26461;45.630;9.418;2023-12-07T05:36:31;4.20;71.40
40756;DHT22;26461;45.630;9.418;2023-12-07T05:39:36;4.20;71.30
40756;DHT22;26461;45.630;9.418;2023-12-07T05:42:49;4.20;71.10
40756;DHT22;26461;45.630;9.418;2023-12-07T05:45:55;4.20;71.10
40756;DHT22;26461;45.630;9.418;2023-12-07T05:49:06;4.60;71.40
40756;DHT22;26461;45.630;9.418;2023-12-07T05:52:16;4.60;71.40
40756;DHT22;26461;45.630;9.418;2023-12-07T05:55:21;4.10;70.80
40756;DHT22;26461;45.630;9.418;2023-12-07T05:58:32;4.10;70.70
40756;DHT22;26461;45.630;9.418;2023-12-07T06:01:38;4.10;70.40
40756;DHT22;26461;45.630;9.418;2023-12-07T06:04:48;4.10;70.00
40756;DHT22;26461;45.630;9.418;2023-12-07T06:07:58;4.10;69.70
40756;DHT22;26461;45.630;9.418;2023-12-07T06:11:08;4.10;69.20
40756;DHT22;26461;45.630;9.418;2023-12-07T06:14:13;4.10;68.80
40756;DHT22;26461;45.630;9.418;2023-12-07T06:17:19;4.10;68.20
40756;DHT22;26461;45.630;9.418;2023-12-07T06:20:31;4.10;68.10
40756;DHT22;26461;45.630;9.418;2023-12-07T06:23:41;4.10;67.60
40756;DHT22;26461;45.630;9.418;2023-12-07T06:26:46;4.10;67.40
40756;DHT22;26461;45.630;9.418;2023-12-07T06:29:52;4.10;67.20
40756;DHT22;26461;45.630;9.418;2023-12-07T06:32:57;4.00;67.20
40756;DHT22;26461;45.630;9.418;2023-12-07T06:36:02;4.00;67.30
40756;DHT22;26461;45.630;9.418;2023-12-07T06:39:15;4.00;67.30
40756;DHT22;26461;45.630;9.418;2023-12-07T06:42:21;3.90;67.60
40756;DHT22;26461;45.630;9.418;2023-12-07T06:45:31;3.90;67.80
40756;DHT22;26461;45.630;9.418;2023-12-07T06:48:36;3.90;68.00
40756;DHT22;26461;45.630;9.418;2023-12-07T06:51:46;3.90;68.10
40756;DHT22;26461;45.630;9.418;2023-12-07T06:54:56;3.90;68.40
40756;DHT22;26461;45.630;9.418;2023-12-07T06:58:03;3.90;68.20
40756;DHT22;26461;45.630;9.418;2023-12-07T07:01:08;3.90;68.20
40756;DHT22;26461;45.630;9.418;2023-12-07T07:04:13;3.80;68.00
40756;DHT22;26461;45.630;9.418;2023-12-07T07:07:18;3.80;68.30
40756;DHT22;26461;45.630;9.418;2023-12-07T07:10:23;3.80;68.60
40756;DHT22;26461;45.630;9.418;2023-12-07T07:13:29;3.80;68.50
40756;DHT22;26461;45.630;9.418;2023-12-07T07:16:35;3.80;68.60
40756;DHT22;26461;45.630;9.418;2023-12-07T07:19:41;3.80;68.80
40756;DHT22;26461;45.630;9.418;2023-12-07T07:22:47;3.80;68.90
40756;DHT22;26461;45.630;9.418;2023-12-07T07:25:52;3.80;68.80
40756;DHT22;26461;45.630;9.418;2023-12-07T07:29:02;3.80;68.60
40756;DHT22;26461;45.630;9.418;2023-12-07T07:32:13;3.80;68.70
40756;DHT22;26461;45.630;9.418;2023-12-07T07:35:23;3.80;68.60
40756;DHT22;26461;45.630;9.418;2023-12-07T07:38:29;3.80;68.40
40756;DHT22;26461;45.630;9.418;2023-12-07T07:41:39;3.80;68.30
40756;DHT22;26461;45.630;9.418;2023-12-07T07:44:50;3.80;68.60
40756;DHT22;26461;45.630;9.418;2023-12-07T07:48:00;3.90;69.00
40756;DHT22;26461;45.630;9.418;2023-12-07T07:51:10;3.90;69.20
40756;DHT22;26461;45.630;9.418;2023-12-07T07:54:15;3.90;69.70
40756;DHT22;26461;45.630;9.418;2023-12-07T07:57:20;3.90;69.90
40756;DHT22;26461;45.630;9.418;2023-12-07T08:00:26;3.90;69.90
40756;DHT22;26461;45.630;9.418;2023-12-07T08:03:37;4.00;69.50
40756;DHT22;26461;45.630;9.418;2023-12-07T08:06:42;4.00;69.30
40756;DHT22;26461;45.630;9.418;2023-12-07T08:09:52;4.10;69.30
40756;DHT22;26461;45.630;9.418;2023-12-07T08:12:58;4.10;69.00
40756;DHT22;26461;45.630;9.418;2023-12-07T08:16:07;4.10;68.70
40756;DHT22;26461;45.630;9.418;2023-12-07T08:19:13;4.20;68.60
40756;DHT22;26461;45.630;9.418;2023-12-07T08:22:24;4.20;68.50
40756;DHT22;26461;45.630;9.418;2023-12-07T08:25:29;4.30;68.10
40756;DHT22;26461;45.630;9.418;2023-12-07T08:28:37;4.30;67.50
40756;DHT22;26461;45.630;9.418;2023-12-07T08:31:47;4.40;66.70
40756;DHT22;26461;45.630;9.418;2023-12-07T08:34:57;4.40;67.20
40756;DHT22;26461;45.630;9.418;2023-12-07T08:38:08;4.40;67.70
40756;DHT22;26461;45.630;9.418;2023-12-07T08:41:18;4.80;67.30
40756;DHT22;26461;45.630;9.418;2023-12-07T08:44:24;4.60;66.60
40756;DHT22;26461;45.630;9.418;2023-12-07T08:47:34;4.70;66.20
40756;DHT22;26461;45.630;9.418;2023-12-07T08:50:39;4.70;66.30
40756;DHT22;26461;45.630;9.418;2023-12-07T08:53:44;4.70;66.20
40756;DHT22;26461;45.630;9.418;2023-12-07T08:56:55;4.80;66.00
40756;DHT22;26461;45.630;9.418;2023-12-07T09:00:06;4.80;66.10
40756;DHT22;26461;45.630;9.418;2023-12-07T09:03:12;4.90;66.20
40756;DHT22;26461;45.630;9.418;2023-12-07T09:06:18;4.90;66.20
40756;DHT22;26461;45.630;9.418;2023-12-07T09:09:23;5.00;66.00
40756;DHT22;26461;45.630;9.418;2023-12-07T09:12:36;5.00;65.60
40756;DHT22;26461;45.630;9.418;2023-12-07T09:15:40;5.00;64.80
40756;DHT22;26461;45.630;9.418;2023-12-07T09:18:51;5.10;64.20
40756;DHT22;26461;45.630;9.418;2023-12-07T09:21:56;5.20;63.90
40756;DHT22;26461;45.630;9.418;2023-12-07T09:25:01;5.20;63.80
40756;DHT22;26461;45.630;9.418;2023-12-07T09:28:12;5.20;63.60
40756;DHT22;26461;45.630;9.418;2023-12-07T09:31:17;5.30;63.30
40756;DHT22;26461;45.630;9.418;2023-12-07T09:34:22;5.50;63.20
40756;DHT22;26461;45.630;9.418;2023-12-07T09:37:35;5.30;62.60
40756;DHT22;26461;45.630;9.418;2023-12-07T09:40:46;5.40;62.00
40756;DHT22;26461;45.630;9.418;2023-12-07T09:43:57;5.50;62.30
40756;DHT22;26461;45.630;9.418;2023-12-07T09:47:02;5.50;62.80
40756;DHT22;26461;45.630;9.418;2023-12-07T09:50:16;5.60;62.70
40756;DHT22;26461;45.630;9.418;2023-12-07T09:53:23;5.70;62.60
40756;DHT22;26461;45.630;9.418;2023-12-07T09:56:33;5.70;62.10
40756;DHT22;26461;45.630;9.418;2023-12-07T09:59:40;5.80;61.20
40756;DHT22;26461;45.630;9.418;2023-12-07T10:02:46;5.80;60.70
40756;DHT22;26461;45.630;9.418;2023-12-07T10:06:00;5.80;59.70
40756;DHT22;26461;45.630;9.418;2023-12-07T10:09:06;5.90;59.60
40756;DHT22;26461;45.630;9.418;2023-12-07T10:12:16;5.90;59.10
40756;DHT22;26461;45.630;9.418;2023-12-07T10:15:26;6.00;59.10
40756;DHT22;26461;45.630;9.418;2023-12-07T10:18:39;6.10;59.00
40756;DHT22;26461;45.630;9.418;2023-12-07T10:21:45;6.10;58.80
40756;DHT22;26461;45.630;9.418;2023-12-07T10:25:22;6.10;58.90
40756;DHT22;26461;45.630;9.418;2023-12-07T10:28:36;6.20;59.00
40756;DHT22;26461;45.630;9.418;2023-12-07T10:31:47;6.20;59.10
40756;DHT22;26461;45.630;9.418;2023-12-07T10:34:53;6.30;59.10
40756;DHT22;26461;45.630;9.418;2023-12-07T10:38:03;6.30;59.30
40756;DHT22;26461;45.630;9.418;2023-12-07T10:41:12;6.40;60.10
40756;DHT22;26461;45.630;9.418;2023-12-07T10:44:18;6.40;60.90
40756;DHT22;26461;45.630;9.418;2023-12-07T10:47:29;6.40;61.10
40756;DHT22;26461;45.630;9.418;2023-12-07T10:50:36;6.50;61.40
40756;DHT22;26461;45.630;9.418;2023-12-07T10:53:51;6.50;61.70
40756;DHT22;26461;45.630;9.418;2023-12-07T10:57:03;6.60;61.80
40756;DHT22;26461;45.630;9.418;2023-12-07T11:00:12;6.60;61.50
40756;DHT22;26461;45.630;9.418;2023-12-07T11:03:17;6.70;61.40
40756;DHT22;26461;45.630;9.418;2023-12-07T11:06:23;6.70;60.80
40756;DHT22;26461;45.630;9.418;2023-12-07T11:09:38;6.80;60.00
40756;DHT22;26461;45.630;9.418;2023-12-07T11:12:52;6.80;59.50
40756;DHT22;26461;45.630;9.418;2023-12-07T11:15:58;6.90;59.20
40756;DHT22;26461;45.630;9.418;2023-12-07T11:19:04;7.00;59.20
40756;DHT22;26461;45.630;9.418;2023-12-07T11:22:11;7.10;59.10
40756;DHT22;26461;45.630;9.418;2023-12-07T11:25:17;7.20;58.60
40756;DHT22;26461;45.630;9.418;2023-12-07T11:28:38;7.20;58.10
40756;DHT22;26461;45.630;9.418;2023-12-07T11:31:49;7.30;57.30
40756;DHT22;26461;45.630;9.418;2023-12-07T11:35:04;7.40;57.00
40756;DHT22;26461;45.630;9.418;2023-12-07T11:38:14;7.50;56.40
40756;DHT22;26461;45.630;9.418;2023-12-07T11:41:35;7.60;55.80
40756;DHT22;26461;45.630;9.418;2023-12-07T11:44:50;7.60;54.40
40756;DHT22;26461;45.630;9.418;2023-12-07T11:48:14;7.70;53.90
40756;DHT22;26461;45.630;9.418;2023-12-07T11:51:21;7.80;53.30
40756;DHT22;26461;45.630;9.418;2023-12-07T11:54:31;7.90;53.00
40756;DHT22;26461;45.630;9.418;2023-12-07T11:57:42;8.00;53.10
40756;DHT22;26461;45.630;9.418;2023-12-07T12:00:47;8.10;54.20
40756;DHT22;26461;45.630;9.418;2023-12-07T12:03:58;8.30;55.80
40756;DHT22;26461;45.630;9.418;2023-12-07T12:07:09;8.30;56.60
40756;DHT22;26461;45.630;9.418;2023-12-07T12:10:14;8.40;57.00
40756;DHT22;26461;45.630;9.418;2023-12-07T12:13:29;8.50;57.70
40756;DHT22;26461;45.630;9.418;2023-12-07T12:16:39;8.60;58.10
40756;DHT22;26461;45.630;9.418;2023-12-07T12:19:50;8.70;58.40
40756;DHT22;26461;45.630;9.418;2023-12-07T12:22:59;8.80;57.70
40756;DHT22;26461;45.630;9.418;2023-12-07T12:26:06;8.80;57.80
40756;DHT22;26461;45.630;9.418;2023-12-07T12:29:13;8.90;57.50
40756;DHT22;26461;45.630;9.418;2023-12-07T12:32:24;9.00;57.40
40756;DHT22;26461;45.630;9.418;2023-12-07T12:35:29;9.20;57.20
40756;DHT22;26461;45.630;9.418;2023-12-07T12:38:35;9.20;56.70
40756;DHT22;26461;45.630;9.418;2023-12-07T12:41:42;9.30;56.40
40756;DHT22;26461;45.630;9.418;2023-12-07T12:44:53;9.40;56.20
40756;DHT22;26461;45.630;9.418;2023-12-07T12:48:04;9.60;56.00
40756;DHT22;26461;45.630;9.418;2023-12-07T12:51:13;9.60;55.30
40756;DHT22;26461;45.630;9.418;2023-12-07T12:54:20;9.70;55.30
40756;DHT22;26461;45.630;9.418;2023-12-07T12:57:27;9.80;54.90
40756;DHT22;26461;45.630;9.418;2023-12-07T13:00:33;9.80;54.40
40756;DHT22;26461;45.630;9.418;2023-12-07T13:03:39;9.90;54.50
40756;DHT22;26461;45.630;9.418;2023-12-07T13:06:49;9.90;54.40
40756;DHT22;26461;45.630;9.418;2023-12-07T13:09:54;10.00;54.10
40756;DHT22;26461;45.630;9.418;2023-12-07T13:13:05;10.00;53.90
40756;DHT22;26461;45.630;9.418;2023-12-07T13:16:17;10.00;53.50
40756;DHT22;26461;45.630;9.418;2023-12-07T13:19:27;10.10;53.90
40756;DHT22;26461;45.630;9.418;2023-12-07T13:22:38;10.20;54.00
40756;DHT22;26461;45.630;9.418;2023-12-07T13:25:43;10.30;53.80
40756;DHT22;26461;45.630;9.418;2023-12-07T13:28:49;10.30;53.50
40756;DHT22;26461;45.630;9.418;2023-12-07T13:31:59;10.40;53.60
40756;DHT22;26461;45.630;9.418;2023-12-07T13:35:09;10.50;53.30
40756;DHT22;26461;45.630;9.418;2023-12-07T13:38:14;10.60;53.20
40756;DHT22;26461;45.630;9.418;2023-12-07T13:41:25;10.60;53.30
40756;DHT22;26461;45.630;9.418;2023-12-07T13:44:30;10.70;52.90
40756;DHT22;26461;45.630;9.418;2023-12-07T13:47:43;10.80;53.20
40756;DHT22;26461;45.630;9.418;2023-12-07T13:50:49;10.90;52.40
40756;DHT22;26461;45.630;9.418;2023-12-07T13:53:55;10.90;52.20
40756;DHT22;26461;45.630;9.418;2023-12-07T13:57:06;10.90;51.80
40756;DHT22;26461;45.630;9.418;2023-12-07T14:00:13;10.90;51.50
40756;DHT22;26461;45.630;9.418;2023-12-07T14:03:23;11.00;51.60
40756;DHT22;26461;45.630;9.418;2023-12-07T14:06:29;11.00;51.10
40756;DHT22;26461;45.630;9.418;2023-12-07T14:09:41;11.00;51.40
40756;DHT22;26461;45.630;9.418;2023-12-07T14:12:47;11.10;51.30
40756;DHT22;26461;45.630;9.418;2023-12-07T14:15:53;11.20;51.60
40756;DHT22;26461;45.630;9.418;2023-12-07T14:18:58;11.30;51.50
40756;DHT22;26461;45.630;9.418;2023-12-07T14:22:04;11.40;51.70
40756;DHT22;26461;45.630;9.418;2023-12-07T14:25:10;11.50;51.20
40756;DHT22;26461;45.630;9.418;2023-12-07T14:28:16;11.50;50.90
40756;DHT22;26461;45.630;9.418;2023-12-07T14:31:22;11.70;50.60
40756;DHT22;26461;45.630;9.418;2023-12-07T14:34:32;11.80;50.30
40756;DHT22;26461;45.630;9.418;2023-12-07T14:37:43;11.80;50.30
40756;DHT22;26461;45.630;9.418;2023-12-07T14:40:54;11.80;50.00
40756;DHT22;26461;45.630;9.418;2023-12-07T14:44:04;11.90;50.20
40756;DHT22;26461;45.630;9.418;2023-12-07T14:47:10;11.90;49.80
40756;DHT22;26461;45.630;9.418;2023-12-07T14:50:16;11.80;49.70
40756;DHT22;26461;45.630;9.418;2023-12-07T14:53:26;11.80;49.90
40756;DHT22;26461;45.630;9.418;2023-12-07T14:56:31;11.70;50.30
40756;DHT22;26461;45.630;9.418;2023-12-07T14:59:44;11.60;50.70
40756;DHT22;26461;45.630;9.418;2023-12-07T15:02:54;11.50;51.10
40756;DHT22;26461;45.630;9.418;2023-12-07T15:06:01;11.30;51.50
40756;DHT22;26461;45.630;9.418;2023-12-07T15:09:12;11.30;51.80
40756;DHT22;26461;45.630;9.418;2023-12-07T15:12:23;11.20;52.00
40756;DHT22;26461;45.630;9.418;2023-12-07T15:15:30;11.00;52.10
40756;DHT22;26461;45.630;9.418;2023-12-07T15:18:40;11.00;52.50
40756;DHT22;26461;45.630;9.418;2023-12-07T15:21:55;10.90;52.80
40756;DHT22;26461;45.630;9.418;2023-12-07T15:25:05;10.80;53.10
40756;DHT22;26461;45.630;9.418;2023-12-07T15:28:11;10.70;53.40
40756;DHT22;26461;45.630;9.418;2023-12-07T15:31:24;10.60;54.80
40756;DHT22;26461;45.630;9.418;2023-12-07T15:34:34;10.50;56.40
40756;DHT22;26461;45.630;9.418;2023-12-07T15:37:40;10.40;57.00
40756;DHT22;26461;45.630;9.418;2023-12-07T15:40:50;10.30;58.00
40756;DHT22;26461;45.630;9.418;2023-12-07T15:44:00;10.10;58.80
40756;DHT22;26461;45.630;9.418;2023-12-07T15:47:11;10.10;59.40
40756;DHT22;26461;45.630;9.418;2023-12-07T15:50:17;10.00;59.80
40756;DHT22;26461;45.630;9.418;2023-12-07T15:53:22;9.90;59.40
40756;DHT22;26461;45.630;9.418;2023-12-07T15:56:27;9.70;60.10
40756;DHT22;26461;45.630;9.418;2023-12-07T15:59:32;9.70;60.50
40756;DHT22;26461;45.630;9.418;2023-12-07T16:02:42;9.60;60.60
40756;DHT22;26461;45.630;9.418;2023-12-07T16:05:48;9.50;61.10
40756;DHT22;26461;45.630;9.418;2023-12-07T16:09:00;9.40;61.50
40756;DHT22;26461;45.630;9.418;2023-12-07T16:12:05;9.30;61.60
40756;DHT22;26461;45.630;9.418;2023-12-07T16:15:10;9.30;61.90
40756;DHT22;26461;45.630;9.418;2023-12-07T16:18:20;9.20;62.40
40756;DHT22;26461;45.630;9.418;2023-12-07T16:21:26;9.10;62.30
40756;DHT22;26461;45.630;9.418;2023-12-07T16:24:33;9.10;63.50
40756;DHT22;26461;45.630;9.418;2023-12-07T16:27:39;9.00;62.90
40756;DHT22;26461;45.630;9.418;2023-12-07T16:30:49;8.90;63.20
40756;DHT22;26461;45.630;9.418;2023-12-07T16:33:55;8.90;63.20
40756;DHT22;26461;45.630;9.418;2023-12-07T16:37:01;8.80;63.70
40756;DHT22;26461;45.630;9.418;2023-12-07T16:40:07;8.80;64.30
40756;DHT22;26461;45.630;9.418;2023-12-07T16:43:17;8.70;65.10
40756;DHT22;26461;45.630;9.418;2023-12-07T16:46:22;8.70;65.20
40756;DHT22;26461;45.630;9.418;2023-12-07T16:49:32;8.70;65.30
40756;DHT22;26461;45.630;9.418;2023-12-07T16:52:38;8.60;65.00
40756;DHT22;26461;45.630;9.418;2023-12-07T16:55:43;8.60;64.50
40756;DHT22;26461;45.630;9.418;2023-12-07T16:58:55;8.50;64.70
40756;DHT22;26461;45.630;9.418;2023-12-07T17:02:06;8.50;64.70
40756;DHT22;26461;45.630;9.418;2023-12-07T17:05:16;8.40;64.10
40756;DHT22;26461;45.630;9.418;2023-12-07T17:08:26;8.40;65.00
40756;DHT22;26461;45.630;9.418;2023-12-07T17:11:32;8.30;64.30
40756;DHT22;26461;45.630;9.418;2023-12-07T17:14:37;8.30;65.20
40756;DHT22;26461;45.630;9.418;2023-12-07T17:17:43;8.30;64.90
40756;DHT22;26461;45.630;9.418;2023-12-07T17:20:53;8.20;65.00
40756;DHT22;26461;45.630;9.418;2023-12-07T17:24:04;8.20;65.50
40756;DHT22;26461;45.630;9.418;2023-12-07T17:27:11;8.10;65.70
40756;DHT22;26461;45.630;9.418;2023-12-07T17:30:22;8.10;66.10
40756;DHT22;26461;45.630;9.418;2023-12-07T17:33:29;8.00;66.20
40756;DHT22;26461;45.630;9.418;2023-12-07T17:36:34;8.00;65.90
40756;DHT22;26461;45.630;9.418;2023-12-07T17:39:40;8.00;66.00
40756;DHT22;26461;45.630;9.418;2023-12-07T17:42:45;7.90;66.00
40756;DHT22;26461;45.630;9.418;2023-12-07T17:45:50;7.90;66.20
40756;DHT22;26461;45.630;9.418;2023-12-07T17:49:01;7.80;66.60
40756;DHT22;26461;45.630;9.418;2023-12-07T17:52:07;7.80;66.80
40756;DHT22;26461;45.630;9.418;2023-12-07T17:55:17;7.80;66.50
40756;DHT22;26461;45.630;9.418;2023-12-07T17:58:28;7.70;66.30
40756;DHT22;26461;45.630;9.418;2023-12-07T18:01:40;7.70;66.90
40756;DHT22;26461;45.630;9.418;2023-12-07T18:04:45;7.70;67.40
40756;DHT22;26461;45.630;9.418;2023-12-07T18:07:51;7.70;67.00
40756;DHT22;26461;45.630;9.418;2023-12-07T18:10:56;7.70;67.00
40756;DHT22;26461;45.630;9.418;2023-12-07T18:14:02;7.60;67.00
40756;DHT22;26461;45.630;9.418;2023-12-07T18:17:13;7.60;67.00
40756;DHT22;26461;45.630;9.418;2023-12-07T18:20:19;7.60;67.00
40756;DHT22;26461;45.630;9.418;2023-12-07T18:23:25;7.60;66.90
40756;DHT22;26461;45.630;9.418;2023-12-07T18:26:35;7.50;66.80
40756;DHT22;26461;45.630;9.418;2023-12-07T18:29:47;7.50;67.10
40756;DHT22;26461;45.630;9.418;2023-12-07T18:32:57;7.50;66.90
40756;DHT22;26461;45.630;9.418;2023-12-07T18:36:03;7.40;66.90
40756;DHT22;26461;45.630;9.418;2023-12-07T18:39:13;7.40;67.70
40756;DHT22;26461;45.630;9.418;2023-12-07T18:42:19;7.30;68.10
40756;DHT22;26461;45.630;9.418;2023-12-07T18:45:29;7.30;68.40
40756;DHT22;26461;45.630;9.418;2023-12-07T18:48:34;7.30;68.30
40756;DHT22;26461;45.630;9.418;2023-12-07T18:51:40;7.20;68.30
40756;DHT22;26461;45.630;9.418;2023-12-07T18:54:46;7.20;68.90
40756;DHT22;26461;45.630;9.418;2023-12-07T18:57:56;7.20;68.90
40756;DHT22;26461;45.630;9.418;2023-12-07T19:01:02;7.20;68.40
40756;DHT22;26461;45.630;9.418;2023-12-07T19:04:08;7.20;67.90
40756;DHT22;26461;45.630;9.418;2023-12-07T19:07:17;7.10;67.60
40756;DHT22;26461;45.630;9.418;2023-12-07T19:10:33;7.10;67.10
40756;DHT22;26461;45.630;9.418;2023-12-07T19:13:39;7.10;66.10
40756;DHT22;26461;45.630;9.418;2023-12-07T19:16:48;7.00;65.60
40756;DHT22;26461;45.630;9.418;2023-12-07T19:20:01;6.90;65.80
40756;DHT22;26461;45.630;9.418;2023-12-07T19:23:08;6.80;66.40
40756;DHT22;26461;45.630;9.418;2023-12-07T19:26:14;6.70;66.90
40756;DHT22;26461;45.630;9.418;2023-12-07T19:29:20;6.70;67.20
40756;DHT22;26461;45.630;9.418;2023-12-07T19:32:30;6.60;67.30
40756;DHT22;26461;45.630;9.418;2023-12-07T19:35:36;6.60;67.40
40756;DHT22;26461;45.630;9.418;2023-12-07T19:38:41;6.50;67.50
40756;DHT22;26461;45.630;9.418;2023-12-07T19:41:48;6.50;67.80
40756;DHT22;26461;45.630;9.418;2023-12-07T19:44:53;6.50;68.00
40756;DHT22;26461;45.630;9.418;2023-12-07T19:47:59;6.40;68.20
40756;DHT22;26461;45.630;9.418;2023-12-07T19:51:17;6.40;68.30
40756;DHT22;26461;45.630;9.418;2023-12-07T19:54:23;6.40;68.20
40756;DHT22;26461;45.630;9.418;2023-12-07T19:57:30;6.40;68.30
40756;DHT22;26461;45.630;9.418;2023-12-07T20:00:40;7.70;69.20
40756;DHT22;26461;45.630;9.418;2023-12-07T20:03:52;6.40;68.20
40756;DHT22;26461;45.630;9.418;2023-12-07T20:06:57;6.30;68.10
40756;DHT22;26461;45.630;9.418;2023-12-07T20:10:08;6.60;68.10